SAS69B EPKK-EKCH
Flight info
| Callsign | SAS69B |
|---|---|
| Flight time | 1h 21m |
| Altitude | 36000 |
| Route | LUMVE L619 NUDRO L617 XIDNA DCT BABEN DCT KOLOB DCT ROE M743 TIDVU |
| Aircraft | A319/M-SDE2E3FGIJ1RWXY/E |
Departure
| Time | 2026-04-24 08:12 |
|---|---|
| Airport | Kraków John Paul II International Airport (EPKK) |
Arrival
| Time | 2026-04-24 09:34 |
|---|---|
| Airport | Copenhagen Kastrup Airport (EKCH) |
| Time | Latitude | Longitude | Altitude | Speed | Heading |
|---|---|---|---|---|---|
| 2026-04-24 07:31 | 50.07585 | 19.80158 | 800 ft | 0 kts | 347° |
| 2026-04-24 08:07 | 50.07588 | 19.80157 | 800 ft | 2 kts | 347° |
| 2026-04-24 08:07 | 50.07608 | 19.80149 | 800 ft | 4 kts | 346° |
| 2026-04-24 08:08 | 50.07637 | 19.80178 | 800 ft | 6 kts | 56° |
| 2026-04-24 08:08 | 50.07650 | 19.80256 | 800 ft | 9 kts | 77° |
| 2026-04-24 08:08 | 50.07663 | 19.80350 | 800 ft | 8 kts | 73° |
| 2026-04-24 08:09 | 50.07778 | 19.80359 | 800 ft | 10 kts | 348° |
| 2026-04-24 08:09 | 50.07826 | 19.80343 | 800 ft | 5 kts | 348° |
| 2026-04-24 08:09 | 50.07834 | 19.80340 | 800 ft | 0 kts | 348° |
| 2026-04-24 08:10 | 50.07837 | 19.80339 | 800 ft | 1 kts | 348° |
| 2026-04-24 08:10 | 50.07863 | 19.80331 | 800 ft | 6 kts | 348° |
| 2026-04-24 08:11 | 50.07921 | 19.80311 | 800 ft | 11 kts | 347° |
| 2026-04-24 08:11 | 50.07995 | 19.80285 | 799 ft | 9 kts | 347° |
| 2026-04-24 08:11 | 50.08018 | 19.80233 | 800 ft | 4 kts | 261° |
| 2026-04-24 08:11 | 50.08015 | 19.80215 | 800 ft | 0 kts | 256° |
| 2026-04-24 08:12 | 50.08008 | 19.80174 | 801 ft | 22 kts | 256° |
| 2026-04-24 08:12 | 50.07921 | 19.79548 | 801 ft | 94 kts | 258° |
| 2026-04-24 08:12 | 50.07741 | 19.78242 | 824 ft | 148 kts | 258° |
| 2026-04-24 08:12 | 50.07521 | 19.76705 | 1487 ft | 141 kts | 259° |
| 2026-04-24 08:13 | 50.07313 | 19.75216 | 2140 ft | 141 kts | 259° |
| 2026-04-24 08:13 | 50.07100 | 19.73713 | 2734 ft | 143 kts | 259° |
| 2026-04-24 08:13 | 50.06889 | 19.72196 | 3290 ft | 145 kts | 260° |
| 2026-04-24 08:13 | 50.06678 | 19.70673 | 3830 ft | 147 kts | 261° |
| 2026-04-24 08:14 | 50.06455 | 19.69038 | 4243 ft | 163 kts | 261° |
| 2026-04-24 08:14 | 50.06206 | 19.67196 | 4612 ft | 186 kts | 261° |
| 2026-04-24 08:14 | 50.05918 | 19.65087 | 4984 ft | 212 kts | 261° |
| 2026-04-24 08:14 | 50.05589 | 19.62707 | 5493 ft | 237 kts | 261° |
| 2026-04-24 08:15 | 50.05222 | 19.60079 | 6145 ft | 257 kts | 261° |
| 2026-04-24 08:15 | 50.04833 | 19.57327 | 7094 ft | 263 kts | 261° |
| 2026-04-24 08:15 | 50.04429 | 19.54524 | 8065 ft | 268 kts | 261° |
| 2026-04-24 08:15 | 50.04018 | 19.51679 | 9019 ft | 272 kts | 261° |
| 2026-04-24 08:16 | 50.03606 | 19.48790 | 9919 ft | 275 kts | 261° |
| 2026-04-24 08:16 | 50.03326 | 19.46800 | 10403 ft | 285 kts | 262° |
| 2026-04-24 08:16 | 50.03026 | 19.43686 | 10751 ft | 305 kts | 272° |
| 2026-04-24 08:16 | 50.03175 | 19.40358 | 11367 ft | 311 kts | 284° |
| 2026-04-24 08:17 | 50.03790 | 19.37141 | 12140 ft | 311 kts | 296° |
| 2026-04-24 08:17 | 50.04654 | 19.34038 | 12946 ft | 314 kts | 297° |
| 2026-04-24 08:17 | 50.05528 | 19.30897 | 13704 ft | 319 kts | 297° |
| 2026-04-24 08:17 | 50.06412 | 19.27710 | 14439 ft | 322 kts | 298° |
| 2026-04-24 08:18 | 50.07319 | 19.24442 | 15152 ft | 327 kts | 298° |
| 2026-04-24 08:18 | 50.08218 | 19.21202 | 15820 ft | 332 kts | 298° |
| 2026-04-24 08:18 | 50.09137 | 19.17872 | 16496 ft | 336 kts | 298° |
| 2026-04-24 08:18 | 50.10067 | 19.14499 | 17161 ft | 341 kts | 298° |
| 2026-04-24 08:19 | 50.11008 | 19.11088 | 17807 ft | 345 kts | 299° |
| 2026-04-24 08:19 | 50.11959 | 19.07633 | 18444 ft | 349 kts | 299° |
| 2026-04-24 08:19 | 50.12920 | 19.04139 | 19072 ft | 353 kts | 298° |
| 2026-04-24 08:19 | 50.13890 | 19.00601 | 19711 ft | 356 kts | 298° |
| 2026-04-24 08:20 | 50.14870 | 18.97027 | 20336 ft | 360 kts | 298° |
| 2026-04-24 08:20 | 50.15858 | 18.93409 | 20944 ft | 364 kts | 298° |
| 2026-04-24 08:20 | 50.16852 | 18.89755 | 21523 ft | 367 kts | 298° |
| 2026-04-24 08:20 | 50.17853 | 18.86071 | 22088 ft | 370 kts | 298° |
| 2026-04-24 08:21 | 50.18865 | 18.82358 | 22645 ft | 374 kts | 298° |
| 2026-04-24 08:21 | 50.19885 | 18.78613 | 23195 ft | 377 kts | 298° |
| 2026-04-24 08:21 | 50.20916 | 18.74825 | 23736 ft | 380 kts | 298° |
| 2026-04-24 08:21 | 50.22104 | 18.71151 | 24237 ft | 378 kts | 307° |
| 2026-04-24 08:22 | 50.23724 | 18.67948 | 24725 ft | 375 kts | 319° |
| 2026-04-24 08:22 | 50.25717 | 18.65348 | 25203 ft | 373 kts | 329° |
| 2026-04-24 08:22 | 50.27995 | 18.63423 | 25670 ft | 373 kts | 339° |
| 2026-04-24 08:22 | 50.30359 | 18.61864 | 26132 ft | 375 kts | 340° |
| 2026-04-24 08:23 | 50.32771 | 18.60268 | 26606 ft | 377 kts | 340° |
| 2026-04-24 08:23 | 50.35196 | 18.58659 | 27064 ft | 380 kts | 340° |
| 2026-04-24 08:23 | 50.37636 | 18.57038 | 27520 ft | 382 kts | 340° |
| 2026-04-24 08:23 | 50.40093 | 18.55406 | 27954 ft | 385 kts | 340° |
| 2026-04-24 08:24 | 50.42569 | 18.53763 | 28389 ft | 387 kts | 340° |
| 2026-04-24 08:24 | 50.45053 | 18.52106 | 28818 ft | 389 kts | 340° |
| 2026-04-24 08:24 | 50.47548 | 18.50440 | 29247 ft | 391 kts | 340° |
| 2026-04-24 08:24 | 50.50059 | 18.48763 | 29653 ft | 393 kts | 340° |
| 2026-04-24 08:25 | 50.52582 | 18.47071 | 30051 ft | 395 kts | 340° |
| 2026-04-24 08:25 | 50.55118 | 18.45369 | 30437 ft | 398 kts | 340° |
| 2026-04-24 08:25 | 50.57596 | 18.43376 | 30799 ft | 404 kts | 331° |
| 2026-04-24 08:25 | 50.59868 | 18.40722 | 31159 ft | 409 kts | 325° |
| 2026-04-24 08:26 | 50.62080 | 18.37893 | 31507 ft | 411 kts | 325° |
| 2026-04-24 08:26 | 50.64306 | 18.35044 | 31865 ft | 413 kts | 325° |
| 2026-04-24 08:26 | 50.66533 | 18.32192 | 32330 ft | 411 kts | 325° |
| 2026-04-24 08:26 | 50.68751 | 18.29350 | 32818 ft | 409 kts | 325° |
| 2026-04-24 08:27 | 50.70957 | 18.26527 | 33289 ft | 408 kts | 325° |
| 2026-04-24 08:27 | 50.73118 | 18.23631 | 33752 ft | 409 kts | 320° |
| 2026-04-24 08:27 | 50.74995 | 18.20230 | 34222 ft | 413 kts | 313° |
| 2026-04-24 08:27 | 50.76728 | 18.16614 | 34675 ft | 411 kts | 313° |
| 2026-04-24 08:28 | 50.78453 | 18.13020 | 35121 ft | 410 kts | 313° |
| 2026-04-24 08:28 | 50.80170 | 18.09443 | 35557 ft | 408 kts | 313° |
| 2026-04-24 08:28 | 50.81858 | 18.05923 | 35937 ft | 407 kts | 313° |
| 2026-04-24 08:28 | 50.83568 | 18.02352 | 36053 ft | 408 kts | 313° |
| 2026-04-24 08:29 | 50.85287 | 17.98760 | 36076 ft | 410 kts | 313° |
| 2026-04-24 08:29 | 50.88748 | 17.91524 | 36081 ft | 413 kts | 313° |
| 2026-04-24 08:30 | 50.92211 | 17.84258 | 36099 ft | 413 kts | 312° |
| 2026-04-24 08:30 | 50.95664 | 17.76986 | 36102 ft | 413 kts | 312° |
| 2026-04-24 08:31 | 50.99113 | 17.69699 | 36101 ft | 412 kts | 312° |
| 2026-04-24 08:31 | 51.02548 | 17.62416 | 36104 ft | 412 kts | 312° |
| 2026-04-24 08:32 | 51.05978 | 17.55120 | 36103 ft | 412 kts | 312° |
| 2026-04-24 08:32 | 51.09383 | 17.47866 | 36108 ft | 412 kts | 312° |
| 2026-04-24 08:33 | 51.12827 | 17.40517 | 36108 ft | 411 kts | 312° |
| 2026-04-24 08:33 | 51.16572 | 17.33776 | 36114 ft | 402 kts | 326° |
| 2026-04-24 08:34 | 51.21374 | 17.29616 | 36112 ft | 394 kts | 341° |
| 2026-04-24 08:34 | 51.26504 | 17.26509 | 36111 ft | 394 kts | 341° |
| 2026-04-24 08:35 | 51.31632 | 17.23384 | 36108 ft | 394 kts | 341° |
| 2026-04-24 08:35 | 51.36761 | 17.20245 | 36106 ft | 394 kts | 341° |
| 2026-04-24 08:36 | 51.41881 | 17.17106 | 36099 ft | 394 kts | 341° |
| 2026-04-24 08:36 | 51.47000 | 17.13970 | 36098 ft | 394 kts | 341° |
| 2026-04-24 08:37 | 51.52116 | 17.10816 | 36091 ft | 394 kts | 341° |
| 2026-04-24 08:37 | 51.57207 | 17.07673 | 36090 ft | 394 kts | 341° |
| 2026-04-24 08:38 | 51.62328 | 17.04517 | 36086 ft | 394 kts | 341° |
| 2026-04-24 08:38 | 51.67450 | 17.01344 | 36086 ft | 394 kts | 341° |
| 2026-04-24 08:39 | 51.72570 | 16.98163 | 36083 ft | 395 kts | 341° |
| 2026-04-24 08:39 | 51.77718 | 16.95014 | 36081 ft | 395 kts | 341° |
| 2026-04-24 08:40 | 51.82869 | 16.91873 | 36084 ft | 396 kts | 341° |
| 2026-04-24 08:40 | 51.88019 | 16.88707 | 36087 ft | 396 kts | 341° |
| 2026-04-24 08:41 | 51.93168 | 16.85529 | 36085 ft | 396 kts | 341° |
| 2026-04-24 08:41 | 51.98309 | 16.82343 | 36083 ft | 396 kts | 340° |
| 2026-04-24 08:42 | 52.03456 | 16.79153 | 36087 ft | 396 kts | 340° |
| 2026-04-24 08:42 | 52.08599 | 16.75957 | 36094 ft | 396 kts | 340° |
| 2026-04-24 08:43 | 52.13745 | 16.72761 | 36101 ft | 396 kts | 340° |
| 2026-04-24 08:43 | 52.18853 | 16.69564 | 36097 ft | 396 kts | 340° |
| 2026-04-24 08:44 | 52.23988 | 16.66334 | 36100 ft | 395 kts | 340° |
| 2026-04-24 08:44 | 52.29123 | 16.63115 | 36098 ft | 395 kts | 340° |
| 2026-04-24 08:45 | 52.34258 | 16.59894 | 36091 ft | 395 kts | 340° |
| 2026-04-24 08:45 | 52.39393 | 16.56657 | 36095 ft | 395 kts | 340° |
| 2026-04-24 08:46 | 52.44522 | 16.53410 | 36093 ft | 395 kts | 340° |
| 2026-04-24 08:46 | 52.49655 | 16.50155 | 36093 ft | 395 kts | 340° |
| 2026-04-24 08:47 | 52.54786 | 16.46897 | 36089 ft | 395 kts | 340° |
| 2026-04-24 08:47 | 52.59910 | 16.43639 | 36088 ft | 395 kts | 340° |
| 2026-04-24 08:48 | 52.65031 | 16.40368 | 36083 ft | 395 kts | 339° |
| 2026-04-24 08:48 | 52.70130 | 16.37101 | 36081 ft | 395 kts | 339° |
| 2026-04-24 08:49 | 52.75252 | 16.33804 | 36079 ft | 395 kts | 339° |
| 2026-04-24 08:49 | 52.80376 | 16.30503 | 36081 ft | 395 kts | 339° |
| 2026-04-24 08:50 | 52.85502 | 16.27199 | 36083 ft | 396 kts | 339° |
| 2026-04-24 08:50 | 52.90634 | 16.23880 | 36086 ft | 396 kts | 339° |
| 2026-04-24 08:51 | 52.95755 | 16.20561 | 36088 ft | 395 kts | 339° |
| 2026-04-24 08:51 | 53.00877 | 16.17231 | 36085 ft | 395 kts | 339° |
| 2026-04-24 08:52 | 53.05952 | 16.13917 | 36083 ft | 394 kts | 339° |
| 2026-04-24 08:52 | 53.11057 | 16.10583 | 36081 ft | 394 kts | 339° |
| 2026-04-24 08:53 | 53.16158 | 16.07237 | 36080 ft | 394 kts | 339° |
| 2026-04-24 08:53 | 53.21270 | 16.03888 | 36082 ft | 395 kts | 339° |
| 2026-04-24 08:54 | 53.26385 | 16.00523 | 36084 ft | 395 kts | 338° |
| 2026-04-24 08:54 | 53.31497 | 15.97140 | 36083 ft | 396 kts | 338° |
| 2026-04-24 08:55 | 53.36629 | 15.93742 | 36081 ft | 397 kts | 338° |
| 2026-04-24 08:55 | 53.41775 | 15.90330 | 36084 ft | 397 kts | 338° |
| 2026-04-24 08:56 | 53.46886 | 15.86928 | 36089 ft | 398 kts | 338° |
| 2026-04-24 08:56 | 53.52029 | 15.83497 | 36094 ft | 397 kts | 338° |
| 2026-04-24 08:57 | 53.57160 | 15.80059 | 36096 ft | 397 kts | 338° |
| 2026-04-24 08:57 | 53.62301 | 15.76603 | 36100 ft | 397 kts | 338° |
| 2026-04-24 08:58 | 53.67430 | 15.73153 | 36104 ft | 397 kts | 338° |
| 2026-04-24 08:58 | 53.72568 | 15.69695 | 36104 ft | 397 kts | 338° |
| 2026-04-24 08:59 | 53.77704 | 15.66214 | 36108 ft | 398 kts | 338° |
| 2026-04-24 08:59 | 53.82853 | 15.62726 | 36109 ft | 398 kts | 338° |
| 2026-04-24 09:00 | 53.87986 | 15.59235 | 36109 ft | 397 kts | 338° |
| 2026-04-24 09:00 | 53.93118 | 15.55739 | 36106 ft | 397 kts | 338° |
| 2026-04-24 09:01 | 53.98242 | 15.52244 | 36104 ft | 397 kts | 338° |
| 2026-04-24 09:01 | 54.02500 | 15.49328 | 36101 ft | 397 kts | 337° |
| 2026-04-24 09:02 | 54.08464 | 15.45237 | 36091 ft | 397 kts | 337° |
| 2026-04-24 09:02 | 54.12763 | 15.42281 | 36089 ft | 397 kts | 337° |
| 2026-04-24 09:03 | 54.17890 | 15.38739 | 36085 ft | 398 kts | 337° |
| 2026-04-24 09:03 | 54.22988 | 15.35211 | 36080 ft | 398 kts | 337° |
| 2026-04-24 09:04 | 54.28123 | 15.31649 | 36074 ft | 398 kts | 337° |
| 2026-04-24 09:04 | 54.30671 | 15.29882 | 35934 ft | 392 kts | 337° |
| 2026-04-24 09:04 | 54.33182 | 15.28140 | 35682 ft | 387 kts | 336° |
| 2026-04-24 09:04 | 54.35668 | 15.26405 | 35432 ft | 385 kts | 336° |
| 2026-04-24 09:05 | 54.38144 | 15.24670 | 35182 ft | 385 kts | 336° |
| 2026-04-24 09:05 | 54.40624 | 15.22936 | 34935 ft | 385 kts | 336° |
| 2026-04-24 09:05 | 54.43117 | 15.21226 | 34683 ft | 386 kts | 337° |
| 2026-04-24 09:05 | 54.45612 | 15.19535 | 34428 ft | 384 kts | 337° |
| 2026-04-24 09:06 | 54.48096 | 15.17860 | 34182 ft | 383 kts | 337° |
| 2026-04-24 09:06 | 54.50576 | 15.16187 | 33931 ft | 382 kts | 337° |
| 2026-04-24 09:06 | 54.53045 | 15.14515 | 33680 ft | 380 kts | 336° |
| 2026-04-24 09:06 | 54.55495 | 15.12847 | 33257 ft | 377 kts | 336° |
| 2026-04-24 09:07 | 54.57924 | 15.11190 | 32789 ft | 374 kts | 337° |
| 2026-04-24 09:07 | 54.60338 | 15.09541 | 32322 ft | 372 kts | 336° |
| 2026-04-24 09:07 | 54.65122 | 15.06267 | 31371 ft | 367 kts | 337° |
| 2026-04-24 09:08 | 54.67490 | 15.04639 | 30894 ft | 365 kts | 337° |
| 2026-04-24 09:08 | 54.69845 | 15.03022 | 30427 ft | 363 kts | 337° |
| 2026-04-24 09:08 | 54.72186 | 15.01417 | 29967 ft | 361 kts | 336° |
| 2026-04-24 09:08 | 54.74515 | 14.99816 | 29512 ft | 359 kts | 336° |
| 2026-04-24 09:09 | 54.76827 | 14.98220 | 29077 ft | 357 kts | 336° |
| 2026-04-24 09:09 | 54.79126 | 14.96628 | 28639 ft | 355 kts | 336° |
| 2026-04-24 09:09 | 54.81415 | 14.95041 | 28213 ft | 353 kts | 336° |
| 2026-04-24 09:09 | 54.83682 | 14.93445 | 27829 ft | 350 kts | 335° |
| 2026-04-24 09:10 | 54.85906 | 14.91789 | 27425 ft | 347 kts | 333° |
| 2026-04-24 09:10 | 54.88109 | 14.90098 | 26978 ft | 346 kts | 333° |
| 2026-04-24 09:10 | 54.90302 | 14.88398 | 26554 ft | 344 kts | 333° |
| 2026-04-24 09:10 | 54.92476 | 14.86710 | 26127 ft | 341 kts | 333° |
| 2026-04-24 09:11 | 54.94641 | 14.85036 | 25681 ft | 340 kts | 333° |
| 2026-04-24 09:11 | 54.96796 | 14.83380 | 25239 ft | 337 kts | 333° |
| 2026-04-24 09:11 | 54.98937 | 14.81737 | 24794 ft | 336 kts | 334° |
| 2026-04-24 09:11 | 55.01069 | 14.80106 | 24346 ft | 333 kts | 334° |
| 2026-04-24 09:12 | 55.03185 | 14.78484 | 23901 ft | 331 kts | 333° |
| 2026-04-24 09:12 | 55.05157 | 14.76474 | 23444 ft | 327 kts | 322° |
| 2026-04-24 09:12 | 55.06819 | 14.73800 | 22986 ft | 325 kts | 311° |
| 2026-04-24 09:12 | 55.08119 | 14.70590 | 22530 ft | 324 kts | 300° |
| 2026-04-24 09:13 | 55.09148 | 14.67099 | 22064 ft | 323 kts | 298° |
| 2026-04-24 09:13 | 55.10170 | 14.63615 | 21619 ft | 321 kts | 299° |
| 2026-04-24 09:13 | 55.11187 | 14.60155 | 21146 ft | 319 kts | 299° |
| 2026-04-24 09:13 | 55.12185 | 14.56754 | 20712 ft | 318 kts | 299° |
| 2026-04-24 09:14 | 55.13189 | 14.53330 | 20257 ft | 316 kts | 299° |
| 2026-04-24 09:14 | 55.14188 | 14.49923 | 19814 ft | 314 kts | 299° |
| 2026-04-24 09:14 | 55.15183 | 14.46530 | 19357 ft | 313 kts | 299° |
| 2026-04-24 09:14 | 55.16172 | 14.43151 | 18914 ft | 311 kts | 299° |
| 2026-04-24 09:15 | 55.17152 | 14.39791 | 18477 ft | 310 kts | 299° |
| 2026-04-24 09:15 | 55.18125 | 14.36435 | 18039 ft | 308 kts | 299° |
| 2026-04-24 09:15 | 55.19089 | 14.33096 | 17596 ft | 307 kts | 299° |
| 2026-04-24 09:15 | 55.20048 | 14.29773 | 17163 ft | 305 kts | 299° |
| 2026-04-24 09:16 | 55.21001 | 14.26465 | 16725 ft | 304 kts | 299° |
| 2026-04-24 09:16 | 55.21950 | 14.23167 | 16283 ft | 302 kts | 299° |
| 2026-04-24 09:16 | 55.22897 | 14.19888 | 15845 ft | 301 kts | 299° |
| 2026-04-24 09:16 | 55.23839 | 14.16618 | 15412 ft | 300 kts | 299° |
| 2026-04-24 09:17 | 55.24779 | 14.13356 | 14986 ft | 299 kts | 299° |
| 2026-04-24 09:17 | 55.25711 | 14.10108 | 14563 ft | 298 kts | 299° |
| 2026-04-24 09:17 | 55.26639 | 14.06877 | 14134 ft | 296 kts | 299° |
| 2026-04-24 09:17 | 55.27564 | 14.03656 | 13708 ft | 295 kts | 299° |
| 2026-04-24 09:18 | 55.28483 | 14.00442 | 13287 ft | 294 kts | 299° |
| 2026-04-24 09:18 | 55.29402 | 13.97229 | 12886 ft | 294 kts | 299° |
| 2026-04-24 09:18 | 55.30315 | 13.94041 | 12494 ft | 291 kts | 299° |
| 2026-04-24 09:18 | 55.31222 | 13.90869 | 12097 ft | 290 kts | 299° |
| 2026-04-24 09:19 | 55.32123 | 13.87707 | 11687 ft | 289 kts | 299° |
| 2026-04-24 09:19 | 55.33015 | 13.84561 | 11294 ft | 287 kts | 299° |
| 2026-04-24 09:19 | 55.33902 | 13.81433 | 10908 ft | 285 kts | 299° |
| 2026-04-24 09:19 | 55.34784 | 13.78321 | 10529 ft | 283 kts | 299° |
| 2026-04-24 09:20 | 55.35657 | 13.75237 | 10149 ft | 281 kts | 299° |
| 2026-04-24 09:20 | 55.36521 | 13.72181 | 9860 ft | 276 kts | 299° |
| 2026-04-24 09:20 | 55.37367 | 13.69181 | 9542 ft | 273 kts | 299° |
| 2026-04-24 09:20 | 55.38207 | 13.66207 | 9186 ft | 270 kts | 299° |
| 2026-04-24 09:21 | 55.39040 | 13.63258 | 8814 ft | 268 kts | 299° |
| 2026-04-24 09:21 | 55.39856 | 13.60363 | 8464 ft | 266 kts | 299° |
| 2026-04-24 09:21 | 55.40677 | 13.57441 | 8125 ft | 265 kts | 299° |
| 2026-04-24 09:21 | 55.41480 | 13.54527 | 7994 ft | 265 kts | 298° |
| 2026-04-24 09:22 | 55.42289 | 13.51614 | 7869 ft | 265 kts | 298° |
| 2026-04-24 09:22 | 55.43097 | 13.48700 | 7705 ft | 264 kts | 298° |
| 2026-04-24 09:22 | 55.43869 | 13.45774 | 7499 ft | 265 kts | 292° |
| 2026-04-24 09:22 | 55.44286 | 13.42606 | 7299 ft | 266 kts | 284° |
| 2026-04-24 09:23 | 55.44654 | 13.39420 | 7100 ft | 264 kts | 285° |
| 2026-04-24 09:23 | 55.45018 | 13.36252 | 6908 ft | 264 kts | 284° |
| 2026-04-24 09:23 | 55.45381 | 13.33091 | 6712 ft | 263 kts | 284° |
| 2026-04-24 09:23 | 55.45742 | 13.29940 | 6510 ft | 262 kts | 284° |
| 2026-04-24 09:24 | 55.45947 | 13.26737 | 6313 ft | 264 kts | 272° |
| 2026-04-24 09:24 | 55.45779 | 13.23501 | 6133 ft | 265 kts | 267° |
| 2026-04-24 09:24 | 55.45582 | 13.20260 | 5937 ft | 265 kts | 268° |
| 2026-04-24 09:24 | 55.45387 | 13.17045 | 5742 ft | 264 kts | 268° |
| 2026-04-24 09:25 | 55.45193 | 13.13835 | 5545 ft | 263 kts | 267° |
| 2026-04-24 09:25 | 55.45000 | 13.10672 | 5362 ft | 264 kts | 267° |
| 2026-04-24 09:25 | 55.44801 | 13.07473 | 5166 ft | 262 kts | 267° |
| 2026-04-24 09:25 | 55.44600 | 13.04290 | 5026 ft | 261 kts | 267° |
| 2026-04-24 09:26 | 55.44400 | 13.01110 | 4977 ft | 261 kts | 267° |
| 2026-04-24 09:26 | 55.44200 | 12.97931 | 4849 ft | 260 kts | 267° |
| 2026-04-24 09:26 | 55.44058 | 12.94785 | 4718 ft | 252 kts | 274° |
| 2026-04-24 09:26 | 55.44298 | 12.91812 | 4594 ft | 239 kts | 288° |
| 2026-04-24 09:27 | 55.44878 | 12.89148 | 4469 ft | 227 kts | 297° |
| 2026-04-24 09:27 | 55.45832 | 12.87053 | 4344 ft | 218 kts | 327° |
| 2026-04-24 09:27 | 55.47264 | 12.86307 | 4225 ft | 219 kts | 0° |
| 2026-04-24 09:27 | 55.48766 | 12.86840 | 4115 ft | 222 kts | 14° |
| 2026-04-24 09:28 | 55.50245 | 12.87641 | 4020 ft | 222 kts | 15° |
| 2026-04-24 09:28 | 55.51723 | 12.88472 | 3813 ft | 222 kts | 15° |
| 2026-04-24 09:28 | 55.53193 | 12.89305 | 3573 ft | 222 kts | 15° |
| 2026-04-24 09:28 | 55.54664 | 12.90069 | 3325 ft | 217 kts | 9° |
| 2026-04-24 09:29 | 55.56135 | 12.90118 | 3062 ft | 209 kts | 349° |
| 2026-04-24 09:29 | 55.57466 | 12.89248 | 2912 ft | 200 kts | 328° |
| 2026-04-24 09:29 | 55.58469 | 12.87679 | 2757 ft | 189 kts | 308° |
| 2026-04-24 09:29 | 55.59181 | 12.85840 | 2616 ft | 176 kts | 302° |
| 2026-04-24 09:30 | 55.59824 | 12.84120 | 2469 ft | 160 kts | 304° |
| 2026-04-24 09:30 | 55.60475 | 12.82575 | 2207 ft | 153 kts | 306° |
| 2026-04-24 09:30 | 55.61130 | 12.81135 | 1957 ft | 147 kts | 307° |
| 2026-04-24 09:30 | 55.61781 | 12.79773 | 1719 ft | 143 kts | 308° |
| 2026-04-24 09:31 | 55.62411 | 12.78497 | 1531 ft | 136 kts | 309° |
| 2026-04-24 09:31 | 55.63043 | 12.77262 | 1363 ft | 134 kts | 312° |
| 2026-04-24 09:31 | 55.63650 | 12.76049 | 1164 ft | 131 kts | 311° |
| 2026-04-24 09:31 | 55.64083 | 12.74639 | 924 ft | 131 kts | 292° |
| 2026-04-24 09:32 | 55.64279 | 12.73065 | 766 ft | 131 kts | 281° |
| 2026-04-24 09:32 | 55.64388 | 12.71470 | 597 ft | 131 kts | 274° |
| 2026-04-24 09:32 | 55.64199 | 12.69896 | 511 ft | 133 kts | 249° |
| 2026-04-24 09:32 | 55.63678 | 12.68552 | 318 ft | 133 kts | 224° |
| 2026-04-24 09:33 | 55.62989 | 12.67478 | 171 ft | 131 kts | 221° |
| 2026-04-24 09:33 | 55.62318 | 12.66417 | 23 ft | 122 kts | 221° |
| 2026-04-24 09:33 | 55.61764 | 12.65558 | 17 ft | 85 kts | 221° |
| 2026-04-24 09:33 | 55.61440 | 12.65054 | 18 ft | 50 kts | 221° |
| 2026-04-24 09:34 | 55.61252 | 12.64625 | 17 ft | 36 kts | 251° |
| 2026-04-24 09:34 | 55.61198 | 12.64336 | 18 ft | 19 kts | 251° |
| 2026-04-24 09:34 | 55.61215 | 12.64114 | 18 ft | 20 kts | 326° |
| 2026-04-24 09:34 | 55.61342 | 12.64182 | 19 ft | 21 kts | 33° |
| 2026-04-24 09:35 | 55.61477 | 12.64340 | 18 ft | 25 kts | 33° |
| 2026-04-24 09:35 | 55.61632 | 12.64519 | 17 ft | 29 kts | 33° |
| 2026-04-24 09:35 | 55.61800 | 12.64711 | 19 ft | 26 kts | 33° |
| 2026-04-24 09:35 | 55.61937 | 12.64869 | 17 ft | 23 kts | 33° |
| 2026-04-24 09:36 | 55.62064 | 12.65016 | 18 ft | 21 kts | 33° |
| 2026-04-24 09:36 | 55.62178 | 12.65147 | 19 ft | 17 kts | 33° |
| 2026-04-24 09:36 | 55.62256 | 12.65130 | 18 ft | 13 kts | 302° |
| 2026-04-24 09:36 | 55.62310 | 12.64976 | 17 ft | 17 kts | 303° |
| 2026-04-24 09:37 | 55.62381 | 12.64788 | 19 ft | 20 kts | 303° |
| 2026-04-24 09:37 | 55.62456 | 12.64583 | 18 ft | 19 kts | 303° |
| 2026-04-24 09:37 | 55.62522 | 12.64404 | 19 ft | 16 kts | 303° |
| 2026-04-24 09:37 | 55.62566 | 12.64286 | 17 ft | 6 kts | 310° |
| 2026-04-24 09:38 | 55.62600 | 12.64324 | 17 ft | 8 kts | 67° |
| 2026-04-24 09:38 | 55.62621 | 12.64411 | 17 ft | 3 kts | 67° |
| 2026-04-24 09:38 | 55.62627 | 12.64436 | 17 ft | 0 kts | 66° |